Time;durP1;ratioP1;P1;durP2;ratioP2;P2;SDS_P1;SDS_P2;PMS_P1;PMS_P2;Temp;Humidity;BMP_temperature;BMP_pressure;BME280_temperature;BME280_humidity;BME280_pressure;Samples;Min_cycle;Max_cycle;Signal;HPM_P1;HPM_P2
2022/06/11 00:01:34;;;;;;;5.07;2.47;;;;;;;24.67;47.49;101276.91;5076204;28;20051;-74
2022/06/11 00:04:07;;;;;;;6.73;2.23;;;;;;;24.67;47.28;101282.31;5076412;28;20044;-74
2022/06/11 00:06:38;;;;;;;4.22;1.52;;;;;;;24.66;47.16;101288.72;5074791;28;20044;-74
2022/06/11 00:09:06;;;;;;;4.28;1.75;;;;;;;24.69;47.16;101292.13;5075863;28;20044;-74
2022/06/11 00:11:34;;;;;;;4.57;1.58;;;;;;;24.69;47.70;101292.13;5075678;28;20048;-74
2022/06/11 00:14:01;;;;;;;3.63;1.70;;;;;;;24.69;47.48;101297.56;5074200;28;20063;-74
2022/06/11 00:16:29;;;;;;;7.07;1.92;;;;;;;24.70;47.57;101299.25;5075323;28;20048;-73
2022/06/11 00:18:59;;;;;;;4.70;1.70;;;;;;;24.69;47.60;101300.25;5075273;28;20407;-73
2022/06/11 00:21:31;;;;;;;3.58;1.80;;;;;;;24.70;47.63;101299.25;5074051;28;20041;-73
2022/06/11 00:23:59;;;;;;;4.65;1.83;;;;;;;24.69;47.60;101298.41;5074091;28;20404;-73
2022/06/11 00:26:27;;;;;;;3.78;1.58;;;;;;;24.70;47.54;101299.25;5075201;28;20408;-73
2022/06/11 00:28:54;;;;;;;3.53;1.50;;;;;;;24.70;47.27;101300.09;5075600;28;20053;-73
2022/06/11 00:31:21;;;;;;;4.07;1.83;;;;;;;24.69;47.23;101292.13;5074139;28;20048;-73
2022/06/11 00:33:50;;;;;;;4.32;1.75;;;;;;;24.70;47.36;101296.53;5073589;28;20075;-73
2022/06/11 00:36:18;;;;;;;2.72;1.63;;;;;;;24.69;47.28;101292.13;5075782;28;20048;-73
2022/06/11 00:38:47;;;;;;;3.60;1.90;;;;;;;24.69;47.49;101295.69;5075018;28;20482;-73
2022/06/11 00:41:17;;;;;;;3.88;1.65;;;;;;;24.70;47.49;101291.13;5074886;28;20041;-73
2022/06/11 00:43:44;;;;;;;5.22;1.95;;;;;;;24.69;47.41;101298.41;5074809;28;20048;-73
2022/06/11 00:46:49;;;;;;;5.03;1.98;;;;;;;24.70;47.60;101296.53;5073423;28;20514;-73
2022/06/11 00:49:20;;;;;;;2.33;1.30;;;;;;;24.68;47.48;101294.00;5075261;28;20036;-73
2022/06/11 00:51:53;;;;;;;2.88;1.52;;;;;;;24.69;47.44;101290.28;5074344;28;20411;-73
2022/06/11 00:54:24;;;;;;;5.55;1.77;;;;;;;24.67;47.33;101290.44;5075093;28;20040;-73
2022/06/11 00:56:56;;;;;;;4.20;1.63;;;;;;;24.69;47.37;101294.84;5075563;28;20476;-73
2022/06/11 00:59:38;;;;;;;2.58;1.40;;;;;;;24.68;47.43;101285.88;5074152;28;20044;-73
2022/06/11 01:02:06;;;;;;;6.45;1.70;;;;;;;24.67;47.62;101284.16;5074921;28;20063;-73
2022/06/11 01:04:45;;;;;;;4.07;1.58;;;;;;;24.67;47.61;101290.44;5074423;28;20052;-73
2022/06/11 01:07:37;;;;;;;6.50;1.95;;;;;;;24.66;47.44;101291.44;5072882;28;20056;-73
2022/06/11 01:10:31;;;;;;;5.05;1.80;;;;;;;24.67;47.74;101295.88;5074811;28;20472;-73
2022/06/11 01:13:17;;;;;;;5.18;1.90;;;;;;;24.66;47.52;101294.13;5073748;28;20056;-73
2022/06/11 01:15:56;;;;;;;3.25;1.67;;;;;;;24.66;47.52;101290.59;5074337;28;20040;-73
2022/06/11 01:18:48;;;;;;;2.80;1.83;;;;;;;24.65;47.57;101281.63;5075063;28;20041;-73
2022/06/11 01:21:27;;;;;;;3.45;1.75;;;;;;;24.66;47.59;101290.59;5074738;28;20412;-73
2022/06/11 01:24:14;;;;;;;4.45;1.73;;;;;;;24.66;47.63;101290.59;5074485;28;20044;-73
2022/06/11 01:27:09;;;;;;;2.63;1.10;;;;;;;24.65;47.64;101292.44;5074972;28;20059;-73
2022/06/11 01:29:46;;;;;;;3.20;1.55;;;;;;;24.65;47.64;101303.28;5073847;28;20040;-73
2022/06/11 01:32:44;;;;;;;3.75;1.42;;;;;;;24.65;47.91;101299.72;5072472;28;20048;-73
2022/06/11 01:35:23;;;;;;;4.68;1.60;;;;;;;24.65;48.18;101300.56;5073672;28;20044;-73
2022/06/11 01:38:02;;;;;;;4.28;1.95;;;;;;;24.65;48.08;101305.97;5074523;28;20057;-73
2022/06/11 01:40:47;;;;;;;2.95;1.60;;;;;;;24.65;48.35;101307.84;5074468;28;20059;-73
2022/06/11 01:43:28;;;;;;;3.50;1.55;;;;;;;24.65;48.16;101311.41;5074155;28;20048;-73
2022/06/11 01:46:01;;;;;;;3.60;1.83;;;;;;;24.64;48.08;101307.00;5073972;28;20107;-73
2022/06/11 01:48:30;;;;;;;4.93;1.50;;;;;;;24.64;48.27;101315.13;5074409;28;20056;-73
2022/06/11 01:51:13;;;;;;;4.60;1.40;;;;;;;24.65;48.49;101313.25;5073708;28;20064;-73
2022/06/11 01:54:10;;;;;;;5.22;2.17;;;;;;;24.64;48.47;101311.56;5074016;28;20387;-73
2022/06/11 01:57:05;;;;;;;6.82;1.75;;;;;;;24.64;48.40;101312.41;5071877;28;20059;-73
2022/06/11 01:59:41;;;;;;;4.80;1.80;;;;;;;24.64;48.50;101307.00;5072375;28;20056;-73
2022/06/11 02:02:36;;;;;;;2.78;1.40;;;;;;;24.63;48.66;101305.31;5073899;28;20110;-73
2022/06/11 02:05:13;;;;;;;4.05;1.58;;;;;;;24.63;48.58;101305.31;5073746;28;20052;-73
2022/06/11 02:07:45;;;;;;;2.80;1.63;;;;;;;24.64;48.69;101314.28;5073574;28;20048;-73
2022/06/11 02:10:39;;;;;;;3.65;1.80;;;;;;;24.63;48.61;101304.41;5074116;28;20063;-73
2022/06/11 02:13:40;;;;;;;3.67;1.55;;;;;;;24.63;48.50;101307.13;5073518;28;20058;-73
2022/06/11 02:16:32;;;;;;;3.60;1.58;;;;;;;24.63;48.64;101309.84;5073700;28;20037;-73
2022/06/11 02:19:05;;;;;;;3.60;1.77;;;;;;;24.61;48.63;101301.03;5073472;28;20044;-73
2022/06/11 02:21:35;;;;;;;;;;;;;;;24.60;48.70;101308.31;5074329;28;20281;-73
2022/06/11 02:24:15;;;;;;;3.30;1.70;;;;;;;24.62;48.75;101308.16;5073419;28;19920;-72
2022/06/11 02:26:49;;;;;;;3.22;1.50;;;;;;;24.61;48.62;101299.19;5073700;28;20056;-73
2022/06/11 02:29:19;;;;;;;3.55;1.70;;;;;;;24.60;49.01;101302.91;5073408;28;20055;-73
2022/06/11 02:31:53;;;;;;;2.20;1.35;;;;;;;24.62;48.96;101300.03;5073580;28;20044;-73
2022/06/11 02:34:25;;;;;;;3.08;1.80;;;;;;;24.60;48.92;101305.59;5072377;28;20048;-73
2022/06/11 02:37:10;;;;;;;3.40;1.50;;;;;;;24.61;49.17;101307.28;5073293;28;20049;-73
2022/06/11 02:39:41;;;;;;;1.90;1.30;;;;;;;24.62;49.08;101308.16;5074058;28;20056;-72
2022/06/11 02:42:12;;;;;;;4.53;1.50;;;;;;;24.60;48.96;101299.34;5073869;28;20036;-73
2022/06/11 02:44:40;;;;;;;3.45;1.60;;;;;;;24.60;49.02;101311.00;5073792;28;20040;-73
2022/06/11 02:47:10;;;;;;;2.88;1.58;;;;;;;24.60;49.03;101304.75;5073725;28;20376;-73
2022/06/11 02:49:37;;;;;;;4.43;1.60;;;;;;;24.62;49.11;101316.25;5072663;28;20060;-73
2022/06/11 02:52:10;;;;;;;3.90;1.90;;;;;;;24.61;49.21;101317.28;5073483;28;20041;-73
2022/06/11 02:54:37;;;;;;;4.10;1.50;;;;;;;24.62;49.17;101313.56;5072101;28;20057;-73
2022/06/11 02:57:08;;;;;;;4.15;1.67;;;;;;;24.61;48.95;101312.72;5071351;28;20059;-73
2022/06/11 02:59:35;;;;;;;3.88;1.60;;;;;;;24.61;48.95;101309.16;5073613;28;20044;-73
2022/06/11 03:02:03;;;;;;;5.82;1.73;;;;;;;24.62;48.79;101318.97;5072766;28;20056;-73
2022/06/11 03:04:31;;;;;;;3.53;2.10;;;;;;;24.61;48.79;101318.13;5072731;28;20044;-73
2022/06/11 03:07:00;;;;;;;3.33;1.63;;;;;;;24.60;48.81;101319.13;5073563;28;20045;-73
2022/06/11 03:09:34;;;;;;;5.88;2.33;;;;;;;24.60;48.67;101321.00;5072697;28;20051;-74
2022/06/11 03:12:03;;;;;;;4.85;1.70;;;;;;;24.60;48.82;101321.00;5072991;28;20392;-74
2022/06/11 03:14:30;;;;;;;5.30;2.15;;;;;;;24.60;48.77;101327.25;5074416;28;20049;-74
2022/06/11 03:16:58;;;;;;;4.68;1.77;;;;;;;24.60;48.65;101329.13;5076263;28;20043;-74
2022/06/11 03:19:26;;;;;;;3.88;1.95;;;;;;;24.59;48.71;101332.81;5076337;28;20044;-73
2022/06/11 03:21:55;;;;;;;3.65;1.58;;;;;;;24.59;48.48;101339.09;5075383;28;20052;-73
2022/06/11 03:24:24;;;;;;;3.95;1.70;;;;;;;24.59;48.78;101330.97;5058600;28;20052;-73
2022/06/11 03:26:52;;;;;;;5.47;1.70;;;;;;;24.59;48.67;101336.41;5076997;28;20051;-74
2022/06/11 03:29:22;;;;;;;3.97;2.20;;;;;;;24.58;48.53;101339.22;5076382;28;20037;-74
2022/06/11 03:31:50;;;;;;;2.50;1.83;;;;;;;24.58;48.60;101340.09;5076164;28;20495;-74
2022/06/11 03:34:17;;;;;;;4.43;1.60;;;;;;;24.58;48.57;101336.53;5076362;28;20055;-73
2022/06/11 03:36:46;;;;;;;5.40;1.92;;;;;;;24.57;48.58;101343.81;5074558;28;20052;-74
2022/06/11 03:39:15;;;;;;;5.68;2.58;;;;;;;24.58;48.66;101344.66;5075070;28;20064;-74
2022/06/11 03:41:44;;;;;;;5.50;2.20;;;;;;;24.59;48.35;101349.06;5076506;28;20044;-74
2022/06/11 03:44:12;;;;;;;4.93;2.03;;;;;;;24.58;48.29;101350.06;5076552;28;20071;-74
2022/06/11 03:46:39;;;;;;;5.00;2.47;;;;;;;24.56;48.52;101347.53;5074629;28;20049;-74
2022/06/11 03:49:07;;;;;;;3.03;1.67;;;;;;;24.56;48.29;101350.22;5075728;28;20059;-74
2022/06/11 03:51:34;;;;;;;6.05;2.47;;;;;;;24.56;48.42;101352.09;5075841;28;20053;-74
2022/06/11 03:54:02;;;;;;;4.32;2.20;;;;;;;24.55;48.38;101343.13;5075700;28;20052;-74
2022/06/11 03:56:30;;;;;;;5.88;2.00;;;;;;;24.55;48.47;101359.38;5075591;28;20040;-74
2022/06/11 03:58:58;;;;;;;3.63;2.05;;;;;;;24.55;48.58;101348.53;5076455;28;20052;-74
2022/06/11 04:01:28;;;;;;;3.95;2.08;;;;;;;24.55;48.74;101350.38;5075563;28;20138;-74
2022/06/11 04:04:00;;;;;;;4.32;1.75;;;;;;;24.55;48.72;101356.66;5076389;28;20041;-74
2022/06/11 04:06:33;;;;;;;5.63;2.30;;;;;;;24.55;48.28;101353.06;5076198;28;20159;-73
2022/06/11 04:09:03;;;;;;;7.72;2.75;;;;;;;24.54;48.42;101356.78;5076347;28;20052;-74
2022/06/11 04:11:30;;;;;;;5.70;2.08;;;;;;;24.54;48.37;101354.94;5075513;28;20063;-74
2022/06/11 04:13:58;;;;;;;6.50;2.22;;;;;;;24.54;48.37;101360.34;5075711;28;20044;-74
2022/06/11 04:16:33;;;;;;;5.13;2.03;;;;;;;24.54;48.45;101362.22;5075391;28;20041;-73
2022/06/11 04:19:04;;;;;;;10.85;2.67;;;;;;;24.54;48.67;101360.34;5076170;28;20051;-73
2022/06/11 04:21:33;;;;;;;7.95;2.25;;;;;;;24.54;48.74;101364.91;5074334;28;20057;-73
2022/06/11 04:24:02;;;;;;;4.35;2.30;;;;;;;24.54;48.68;101370.31;5075776;28;20056;-73
2022/06/11 04:26:34;;;;;;;6.22;2.50;;;;;;;24.53;48.62;101371.34;5074817;28;20041;-73
2022/06/11 04:29:04;;;;;;;4.65;2.47;;;;;;;24.53;48.87;101374.91;5074073;28;20492;-73
2022/06/11 04:31:32;;;;;;;3.95;2.10;;;;;;;24.53;48.56;101372.19;5075035;28;20071;-73
2022/06/11 04:34:06;;;;;;;6.50;2.72;;;;;;;24.53;48.71;101379.47;5075188;28;20063;-73
2022/06/11 04:36:35;;;;;;;5.22;2.47;;;;;;;24.52;48.66;101384.03;5074866;28;20048;-73
2022/06/11 04:39:05;;;;;;;7.15;2.30;;;;;;;24.53;48.94;101377.59;5074071;28;20045;-74
2022/06/11 04:41:33;;;;;;;7.53;2.50;;;;;;;24.53;48.83;101382.16;5073609;28;20053;-73
2022/06/11 04:44:01;;;;;;;6.97;2.20;;;;;;;24.52;48.63;101384.03;5056890;28;20056;-74
2022/06/11 04:46:28;;;;;;;4.40;1.98;;;;;;;24.52;48.58;101378.59;5075370;28;20132;-73
2022/06/11 04:48:56;;;;;;;6.35;2.15;;;;;;;24.52;48.76;101389.44;5075535;28;20038;-73
2022/06/11 04:51:24;;;;;;;5.03;2.17;;;;;;;24.52;48.80;101386.72;5074983;28;20202;-73
2022/06/11 04:53:51;;;;;;;8.30;2.40;;;;;;;24.53;48.83;101382.16;5074883;28;20049;-73
2022/06/11 04:56:27;;;;;;;4.68;2.13;;;;;;;24.52;48.69;101386.72;5074933;28;20040;-73
2022/06/11 04:58:54;;;;;;;4.82;2.47;;;;;;;24.51;48.53;101387.75;5074731;28;20419;-73
2022/06/11 05:01:28;;;;;;;5.82;2.33;;;;;;;24.52;48.56;101384.03;5075162;28;20484;-73
2022/06/11 05:03:55;;;;;;;5.30;2.42;;;;;;;24.51;48.75;101381.44;5074468;28;20407;-73
2022/06/11 05:06:28;;;;;;;4.28;2.05;;;;;;;24.52;48.81;101394.00;5074395;28;20065;-73
2022/06/11 05:08:56;;;;;;;;;;;;;;;24.52;48.73;101391.28;5075578;28;20044;-73
2022/06/11 05:11:23;;;;;;;3.70;2.30;;;;;;;24.51;48.67;101390.44;5074190;28;19928;-73
2022/06/11 05:13:50;;;;;;;5.82;2.58;;;;;;;24.50;48.78;101396.84;5074201;28;20056;-73
2022/06/11 05:16:20;;;;;;;6.18;2.65;;;;;;;24.50;48.78;101399.56;5073135;28;20048;-73
2022/06/11 05:18:47;;;;;;;7.25;2.20;;;;;;;24.52;48.38;101404.84;5074038;28;20045;-73
2022/06/11 05:21:15;;;;;;;4.78;2.10;;;;;;;24.51;48.38;101403.97;5073789;28;20070;-73
2022/06/11 05:23:42;;;;;;;7.68;2.40;;;;;;;24.52;48.51;101404.84;5073889;28;20077;-73
2022/06/11 05:26:17;;;;;;;5.85;2.63;;;;;;;24.52;48.41;101416.50;5074648;28;20056;-73
2022/06/11 05:28:45;;;;;;;7.90;2.20;;;;;;;24.51;48.37;101414.81;5074057;28;20071;-73
2022/06/11 05:31:12;;;;;;;4.50;2.40;;;;;;;24.52;48.56;101412.94;5073323;28;20055;-73
2022/06/11 05:33:40;;;;;;;6.07;2.80;;;;;;;24.51;48.77;101420.22;5073879;28;20384;-73
2022/06/11 05:36:09;;;;;;;4.65;2.45;;;;;;;24.51;49.17;101416.63;5073513;28;20036;-73
2022/06/11 05:38:36;;;;;;;4.60;2.28;;;;;;;24.51;49.02;101414.81;5073794;28;20130;-73
2022/06/11 05:41:04;;;;;;;6.50;2.60;;;;;;;24.52;48.86;101419.22;5074098;28;20051;-73
2022/06/11 05:43:31;;;;;;;5.68;2.40;;;;;;;24.53;49.05;101409.22;5073358;28;20044;-73
2022/06/11 05:46:10;;;;;;;5.38;2.28;;;;;;;24.52;48.95;101410.25;5073059;28;20047;-73
2022/06/11 05:48:46;;;;;;;6.07;1.75;;;;;;;24.53;49.09;101411.94;5073905;28;20044;-73
2022/06/11 05:51:18;;;;;;;5.20;1.85;;;;;;;24.52;49.01;101413.81;5073581;28;20048;-73
2022/06/11 05:53:48;;;;;;;6.43;2.03;;;;;;;24.53;48.86;101418.19;5074136;28;20468;-73
2022/06/11 05:56:17;;;;;;;4.47;1.70;;;;;;;24.53;49.23;101418.19;5073158;28;20522;-73
2022/06/11 05:58:49;;;;;;;4.95;1.98;;;;;;;24.53;49.23;101411.94;5073628;28;20472;-73
2022/06/11 06:01:21;;;;;;;6.32;2.50;;;;;;;24.53;48.89;101412.78;5073529;28;20476;-73
2022/06/11 06:03:48;;;;;;;2.35;1.45;;;;;;;24.53;49.08;101412.78;5074107;28;20056;-73
2022/06/11 06:06:16;;;;;;;5.07;1.92;;;;;;;24.53;49.10;101410.06;5073874;28;20490;-73
2022/06/11 06:08:44;;;;;;;3.97;1.80;;;;;;;24.53;48.85;101412.78;5071801;28;20052;-73
2022/06/11 06:11:12;;;;;;;2.97;1.90;;;;;;;24.53;49.30;101415.50;5072908;28;20045;-73
2022/06/11 06:13:48;;;;;;;2.90;1.92;;;;;;;24.53;49.29;101415.50;5071766;28;20048;-74
2022/06/11 06:16:23;;;;;;;3.92;1.48;;;;;;;24.54;49.00;101413.63;5073568;28;20093;-74
2022/06/11 06:18:52;;;;;;;11.77;1.85;;;;;;;24.55;49.43;101415.31;5073252;28;20055;-74
2022/06/11 06:21:22;;;;;;;4.15;1.70;;;;;;;24.54;49.53;101422.59;5073112;28;20044;-74
2022/06/11 06:23:50;;;;;;;3.63;1.58;;;;;;;24.54;49.47;101419.91;5074036;28;20047;-73
2022/06/11 06:26:18;;;;;;;4.32;1.65;;;;;;;24.55;49.23;101426.16;5073113;28;20048;-74
2022/06/11 06:28:46;;;;;;;4.38;1.85;;;;;;;24.56;49.25;101425.19;5071573;28;20060;-74
2022/06/11 06:31:15;;;;;;;2.80;1.60;;;;;;;24.55;49.21;101413.50;5072873;28;20040;-74
2022/06/11 06:33:43;;;;;;;3.63;2.00;;;;;;;24.56;49.55;101420.59;5073471;28;20046;-74
2022/06/11 06:36:11;;;;;;;3.55;1.73;;;;;;;24.56;49.57;101417.91;5073385;28;20045;-74
2022/06/11 06:38:41;;;;;;;4.80;1.80;;;;;;;24.56;49.49;101412.50;5073289;28;20384;-74
2022/06/11 06:41:09;;;;;;;2.85;1.65;;;;;;;24.57;49.41;101416.03;5072909;28;20503;-74
2022/06/11 06:43:37;;;;;;;3.88;1.85;;;;;;;24.57;49.16;101425.00;5072669;28;20045;-73
2022/06/11 06:46:05;;;;;;;3.45;1.70;;;;;;;24.57;49.25;101422.31;5072713;28;20044;-74
2022/06/11 06:48:33;;;;;;;4.07;1.80;;;;;;;24.57;49.50;101427.72;5073556;28;20059;-74
2022/06/11 06:51:00;;;;;;;3.38;1.73;;;;;;;24.59;49.47;101422.13;5077024;28;20045;-74
2022/06/11 06:53:28;;;;;;;3.20;1.83;;;;;;;24.58;49.55;101432.13;5076485;28;20040;-74
2022/06/11 06:55:56;;;;;;;4.75;1.90;;;;;;;24.58;49.58;101442.94;5076732;28;20484;-74
2022/06/11 06:58:24;;;;;;;3.22;1.52;;;;;;;24.59;49.52;101439.25;5075297;28;20052;-74
2022/06/11 07:00:52;;;;;;;4.55;1.88;;;;;;;24.59;49.55;101436.56;5077156;28;20052;-74
2022/06/11 07:03:19;;;;;;;5.05;1.73;;;;;;;24.60;49.58;101440.13;5077380;28;20089;-74
2022/06/11 07:05:48;;;;;;;2.58;1.63;;;;;;;24.60;49.56;101434.69;5077106;28;20041;-74
2022/06/11 07:08:17;;;;;;;2.97;1.33;;;;;;;24.60;49.42;101438.25;5076836;28;20048;-74
2022/06/11 07:10:53;;;;;;;2.60;1.65;;;;;;;24.61;49.68;101434.53;5075643;28;20488;-74
2022/06/11 07:13:21;;;;;;;2.53;1.45;;;;;;;24.61;49.86;101430.97;5076913;28;20040;-74
2022/06/11 07:15:51;;;;;;;3.88;1.80;;;;;;;24.61;49.81;101434.53;5075887;28;20052;-73
2022/06/11 07:18:26;;;;;;;4.10;1.50;;;;;;;24.63;49.91;101440.66;5076867;28;20051;-74
2022/06/11 07:20:55;;;;;;;3.55;1.80;;;;;;;24.64;49.99;101438.81;5077135;28;20390;-74
2022/06/11 07:23:35;;;;;;;2.40;1.50;;;;;;;24.63;49.92;101439.78;5076251;28;20075;-74
2022/06/11 07:26:08;;;;;;;3.60;1.75;;;;;;;24.63;48.43;101432.53;5077136;28;20052;-74
2022/06/11 07:28:39;;;;;;;4.22;1.85;;;;;;;24.63;48.13;101428.97;5076855;28;20041;-73
2022/06/11 07:31:07;;;;;;;3.05;1.83;;;;;;;24.62;48.19;101438.09;5076962;28;20048;-73
2022/06/11 07:33:34;;;;;;;3.10;1.60;;;;;;;24.60;47.64;101440.13;5076359;28;20506;-73
2022/06/11 07:36:02;;;;;;;3.38;1.60;;;;;;;24.57;46.22;101435.84;5076859;28;20040;-73
2022/06/11 07:38:30;;;;;;;3.78;1.70;;;;;;;24.54;47.12;101441.56;5075850;28;20032;-73
2022/06/11 07:40:57;;;;;;;3.67;1.50;;;;;;;24.52;47.62;101438.16;5077007;28;20040;-73
2022/06/11 07:43:24;;;;;;;2.30;1.42;;;;;;;24.51;47.71;101441.88;5076552;28;20071;-73
2022/06/11 07:45:52;;;;;;;6.22;2.00;;;;;;;24.51;48.28;101436.47;5075526;28;20055;-73
2022/06/11 07:48:19;;;;;;;2.50;1.48;;;;;;;24.55;48.57;101436.97;5075060;28;20044;-73
2022/06/11 07:50:49;;;;;;;4.13;1.70;;;;;;;24.57;48.81;101432.28;5076461;28;20491;-78
2022/06/11 07:53:18;;;;;;;6.70;2.42;;;;;;;24.60;49.01;101435.53;5077812;28;20052;-77
2022/06/11 07:55:47;;;;;;;5.40;1.90;;;;;;;24.64;49.06;101431.53;5078454;28;20060;-77
2022/06/11 07:58:17;;;;;;;3.03;1.80;;;;;;;24.65;49.25;101435.09;5078227;28;20037;-75
2022/06/11 08:00:48;;;;;;;5.45;1.83;;;;;;;24.66;49.74;101434.91;5076430;28;20480;-73
2022/06/11 08:03:16;;;;;;;5.30;2.35;;;;;;;24.66;50.48;101437.63;5074779;28;20502;-72
2022/06/11 08:05:45;;;;;;;6.30;2.72;;;;;;;24.65;50.04;101435.94;5076210;28;20048;-73
2022/06/11 08:08:13;;;;;;;4.25;2.15;;;;;;;24.64;49.88;101436.94;5076223;28;20041;-73
2022/06/11 08:10:42;;;;;;;3.85;2.00;;;;;;;24.62;49.71;101438.94;5076400;28;20059;-76
2022/06/11 08:13:12;;;;;;;4.07;2.10;;;;;;;24.61;49.82;101444.50;5076271;28;20115;-74
2022/06/11 08:15:43;;;;;;;4.72;2.00;;;;;;;24.62;49.81;101449.75;5076034;28;20052;-73
2022/06/11 08:18:11;;;;;;;5.50;2.47;;;;;;;24.61;49.75;101445.38;5076065;28;20036;-73
2022/06/11 08:20:39;;;;;;;4.95;1.80;;;;;;;24.62;49.78;101446.22;5075847;28;20048;-73
2022/06/11 08:23:08;;;;;;;5.75;1.75;;;;;;;24.62;49.63;101447.06;5075928;28;20048;-73
2022/06/11 08:25:36;;;;;;;4.18;2.08;;;;;;;24.62;48.96;101448.91;5076470;28;20129;-73
2022/06/11 08:28:05;;;;;;;4.05;1.73;;;;;;;24.60;48.79;101448.22;5074761;28;20385;-73
2022/06/11 08:30:33;;;;;;;7.97;2.13;;;;;;;24.60;48.69;101459.06;5075777;28;20513;-73
2022/06/11 08:33:01;;;;;;;2.67;1.60;;;;;;;24.60;48.77;101451.78;5076724;28;20063;-73
2022/06/11 08:35:30;;;;;;;5.70;1.85;;;;;;;24.60;49.01;101454.50;5075931;28;20048;-72
2022/06/11 08:37:58;;;;;;;6.18;2.05;;;;;;;24.61;49.35;101456.19;5075355;28;20045;-73
2022/06/11 08:40:28;;;;;;;11.27;2.13;;;;;;;24.61;49.49;101452.63;5076076;28;20067;-72
2022/06/11 08:43:00;;;;;;;4.20;2.20;;;;;;;24.60;50.11;101457.19;5075966;28;20044;-74
2022/06/11 08:45:37;;;;;;;3.10;1.85;;;;;;;24.62;49.82;101463.31;5075096;28;20059;-73
2022/06/11 08:48:21;;;;;;;4.75;1.85;;;;;;;24.62;49.92;101457.88;5074893;28;20048;-73
2022/06/11 08:51:01;;;;;;;4.35;1.98;;;;;;;24.63;49.80;101462.31;5075111;28;20045;-79
2022/06/11 08:53:32;;;;;;;4.60;2.40;;;;;;;24.62;49.84;101455.19;5075390;28;20490;-73
2022/06/11 08:56:00;;;;;;;6.28;2.30;;;;;;;24.64;49.93;101457.75;5075288;28;20373;-73
2022/06/11 08:58:51;;;;;;;4.95;1.85;;;;;;;24.65;49.70;101457.59;5073663;28;20037;-73
2022/06/11 09:01:29;;;;;;;5.57;2.30;;;;;;;24.66;49.67;101456.56;5073735;28;20484;-73
2022/06/11 09:04:09;;;;;;;4.18;1.80;;;;;;;24.67;50.10;101458.31;5073998;28;20530;-73
2022/06/11 09:07:36;;;;;;;3.60;2.30;;;;;;;24.69;50.15;101468.13;5074539;28;20052;-74
2022/06/11 09:10:31;;;;;;;8.20;1.95;;;;;;;24.69;49.58;101460.00;5035596;28;20060;-72
2022/06/11 09:13:23;;;;;;;9.85;2.15;;;;;;;24.69;49.74;101458.16;5052393;28;20061;-74
2022/06/11 09:16:51;;;;;;;4.13;1.85;;;;;;;24.71;49.68;101457.97;5035293;28;20052;-74
2022/06/11 09:19:30;;;;;;;7.10;2.30;;;;;;;24.73;50.22;101462.25;4954162;29;20055;-74
2022/06/11 09:22:18;;;;;;;5.55;2.10;;;;;;;24.75;49.93;101456.66;4954432;29;20063;-74
2022/06/11 09:25:07;;;;;;;2.55;1.70;;;;;;;24.75;49.81;101453.97;4953936;29;20630;-74
2022/06/11 09:27:34;;;;;;;3.83;2.00;;;;;;;24.76;49.91;101458.41;4954089;29;20096;-76
2022/06/11 09:30:30;;;;;;;3.85;1.75;;;;;;;24.75;50.03;101449.41;4953971;29;20539;-74
2022/06/11 09:33:42;;;;;;;3.05;1.98;;;;;;;24.76;50.14;101450.28;4954310;29;20051;-74
2022/06/11 09:36:25;;;;;;;3.95;1.60;;;;;;;24.76;49.84;101453.81;4916345;29;20455;-74
2022/06/11 09:39:08;;;;;;;3.92;2.00;;;;;;;24.78;49.59;101453.66;4916163;29;20060;-73
2022/06/11 09:41:51;;;;;;;3.75;2.05;;;;;;;24.79;49.89;101455.38;4915670;29;20064;-73
2022/06/11 09:44:34;;;;;;;3.30;2.25;;;;;;;24.79;49.14;101461.63;4925986;29;20070;-73
2022/06/11 09:47:22;;;;;;;3.97;1.83;;;;;;;24.80;49.26;101462.50;4934665;29;20529;-73
2022/06/11 09:50:21;;;;;;;2.92;1.83;;;;;;;24.80;49.50;101462.50;4934399;29;20063;-74
2022/06/11 09:52:59;;;;;;;2.38;1.90;;;;;;;24.81;48.62;101465.06;4941259;28;20386;-74
2022/06/11 09:55:47;;;;;;;2.63;2.05;;;;;;;24.83;48.57;101456.75;5031780;28;20060;-73
2022/06/11 09:58:17;;;;;;;2.72;1.92;;;;;;;24.86;47.89;101461.88;5031744;28;20189;-73
2022/06/11 10:01:03;;;;;;;3.17;1.88;;;;;;;24.87;47.80;101459.03;5032088;28;20049;-73
2022/06/11 10:03:52;;;;;;;3.85;2.03;;;;;;;24.88;47.21;101449.91;5015348;28;20057;-73
2022/06/11 10:06:29;;;;;;;3.70;1.85;;;;;;;24.92;45.69;101451.28;5015357;28;20049;-73
2022/06/11 10:09:03;;;;;;;2.70;2.08;;;;;;;24.95;46.18;101447.41;5015464;28;20056;-73
2022/06/11 10:11:38;;;;;;;2.75;1.60;;;;;;;24.99;46.33;101447.94;5045596;28;20061;-73
2022/06/11 10:14:36;;;;;;;3.63;1.98;;;;;;;24.99;46.55;101443.38;5073894;28;20045;-74
2022/06/11 10:17:27;;;;;;;3.28;1.85;;;;;;;25.01;46.91;101446.81;5067398;28;20400;-77
2022/06/11 10:19:54;;;;;;;3.35;2.20;;;;;;;25.01;47.09;101444.09;5062762;28;20045;-74
2022/06/11 10:22:41;;;;;;;4.20;2.22;;;;;;;25.02;47.05;101437.66;5071335;28;20100;-75
2022/06/11 10:25:11;;;;;;;2.45;2.00;;;;;;;25.01;47.03;101438.69;5060282;28;20048;-76
2022/06/11 10:27:55;;;;;;;3.83;2.20;;;;;;;25.01;47.11;101438.69;5080490;28;20036;-73
2022/06/11 10:30:45;;;;;;;3.85;2.10;;;;;;;25.02;48.96;101440.38;5073041;28;20037;-73
2022/06/11 10:33:20;;;;;;;3.13;2.05;;;;;;;25.04;46.40;101443.78;5070447;28;20399;-73
2022/06/11 10:35:55;;;;;;;3.10;2.33;;;;;;;25.04;51.46;101437.53;5072434;28;20048;-73
2022/06/11 10:38:34;;;;;;;3.00;1.85;;;;;;;25.01;48.53;101425.13;5072397;28;20044;-74
2022/06/11 10:41:05;;;;;;;2.83;2.00;;;;;;;25.00;50.43;101436.97;5072737;28;20048;-73
2022/06/11 10:44:37;;;;;;;3.00;1.92;;;;;;;25.01;47.07;101433.25;5072785;28;20052;-74
2022/06/11 10:47:24;;;;;;;2.25;1.70;;;;;;;25.00;52.09;101428.00;5072432;28;20472;-74
2022/06/11 10:50:18;;;;;;;3.00;1.90;;;;;;;24.98;52.76;101432.72;5053794;28;20052;-74
2022/06/11 10:53:01;;;;;;;3.45;2.28;;;;;;;24.95;53.60;101428.44;5050718;28;20053;-74
2022/06/11 10:55:35;;;;;;;4.70;2.10;;;;;;;24.94;48.81;101425.91;5052385;28;20053;-74
2022/06/11 10:58:40;;;;;;;2.67;1.80;;;;;;;24.95;50.13;101424.88;5068028;28;20053;-73
2022/06/11 11:01:32;;;;;;;2.20;1.65;;;;;;;24.94;48.21;101415.06;5051818;28;20504;-73
2022/06/11 11:04:05;;;;;;;4.78;2.45;;;;;;;24.95;47.56;101416.75;5052365;28;20060;-73
2022/06/11 11:06:35;;;;;;;3.00;2.40;;;;;;;24.96;49.60;101419.34;5052564;28;20052;-73
2022/06/11 11:09:09;;;;;;;2.50;1.95;;;;;;;24.97;47.72;101412.06;5052139;28;20045;-74
2022/06/11 11:11:55;;;;;;;3.80;2.40;;;;;;;25.00;47.66;101412.59;5060095;28;20400;-74
2022/06/11 11:14:41;;;;;;;3.10;2.20;;;;;;;25.02;47.67;101412.44;5073262;28;20396;-73
2022/06/11 11:17:24;;;;;;;2.53;1.85;;;;;;;25.03;46.55;101409.56;5072235;28;20403;-75
2022/06/11 11:22:50;;;;;;;2.50;2.03;;;;;;;25.03;47.27;101406.84;5072201;28;20045;-73
2022/06/11 11:25:24;;;;;;;2.83;1.90;;;;;;;25.04;46.68;101403.16;5072474;28;20045;-73
2022/06/11 11:27:52;;;;;;;4.05;2.00;;;;;;;25.05;46.25;101398.59;5079359;28;20043;-73
2022/06/11 11:30:30;;;;;;;4.63;2.50;;;;;;;25.04;46.12;101400.44;5091487;28;20043;-74
2022/06/11 11:33:12;;;;;;;6.80;1.95;;;;;;;25.06;46.56;101403.84;5092023;28;20044;-73
2022/06/11 11:35:41;;;;;;;2.42;1.73;;;;;;;25.07;46.13;101399.25;5073883;28;20037;-73
2022/06/11 11:38:11;;;;;;;2.33;1.90;;;;;;;25.07;46.12;101399.25;5075578;28;20044;-73
2022/06/11 11:41:00;;;;;;;3.40;1.88;;;;;;;25.07;46.40;101400.13;5074530;28;20051;-74
2022/06/11 11:43:41;;;;;;;5.03;1.90;;;;;;;25.06;46.35;101393.00;5076060;28;20059;-73
2022/06/11 11:46:17;;;;;;;3.35;2.22;;;;;;;25.06;46.41;101395.72;5075513;28;20051;-73
2022/06/11 11:48:50;;;;;;;2.85;2.03;;;;;;;25.07;46.81;101388.44;5075330;28;20048;-72
2022/06/11 11:51:41;;;;;;;3.30;2.30;;;;;;;25.07;49.19;101388.44;5075372;28;20059;-72
2022/06/11 11:54:22;;;;;;;3.35;2.05;;;;;;;25.05;46.33;101393.16;5075676;28;20048;-74
2022/06/11 11:56:54;;;;;;;3.42;2.00;;;;;;;25.11;43.72;101390.69;5075233;28;20052;-76
2022/06/11 11:59:26;;;;;;;2.17;1.73;;;;;;;25.18;42.10;101390.09;5075545;28;20045;-76
2022/06/11 12:01:57;;;;;;;2.28;1.70;;;;;;;25.24;43.44;101389.44;5075815;28;20059;-75
2022/06/11 12:04:50;;;;;;;2.92;2.47;;;;;;;25.27;43.79;101391.84;5075384;28;20483;-74